Time;durP1;ratioP1;P1;durP2;ratioP2;P2;SDS_P1;SDS_P2;PMS_P1;PMS_P2;Temp;Humidity;BMP_temperature;BMP_pressure;BME280_temperature;BME280_humidity;BME280_pressure;Samples;Min_cycle;Max_cycle;Signal;HPM_P1;HPM_P2
2022/11/08 00:01:57;;;;;;;7.00;5.30;;;;;;;;;;108541;1265;22638;-34
2022/11/08 00:04:29;;;;;;;6.80;4.70;;;;;;;;;;108294;1258;437480;-33
2022/11/08 00:15:37;;;;;;;7.20;4.90;;;;;;;;;;108516;1265;22559;-33
2022/11/08 00:18:10;;;;;;;6.70;4.60;;;;;;;;;;108496;1263;25986;-34
2022/11/08 00:20:42;;;;;;;6.90;5.00;;;;;;;;;;108536;1263;24006;-33
2022/11/08 00:23:14;;;;;;;6.80;4.70;;;;;;;;;;108481;1267;22556;-34
2022/11/08 00:25:46;;;;;;;6.70;4.70;;;;;;;;;;108545;1268;22551;-34
2022/11/08 00:28:18;;;;;;;8.00;4.90;;;;;;;;;;108511;1266;22559;-34
2022/11/08 00:30:53;;;;;;;6.90;4.90;;;;;;;;;;108541;1266;22669;-34
2022/11/08 00:33:25;;;;;;;6.70;5.20;;;;;;;;;;108509;1259;25945;-33
2022/11/08 00:36:01;;;;;;;6.90;4.80;;;;;;;;;;108536;1266;22805;-34
2022/11/08 00:38:33;;;;;;;7.20;5.30;;;;;;;;;;108533;1266;22558;-34
2022/11/08 00:41:08;;;;;;;7.20;5.00;;;;;;;;;;108550;1267;23826;-34
2022/11/08 00:43:40;;;;;;;6.60;4.60;;;;;;;;;;108507;1265;23702;-33
2022/11/08 00:46:12;;;;;;;7.80;4.90;;;;;;;;;;108520;1266;22539;-33
2022/11/08 00:48:44;;;;;;;7.70;5.10;;;;;;;;;;108494;1265;22629;-33
2022/11/08 00:51:16;;;;;;;7.60;5.10;;;;;;;;;;108521;1265;25264;-33
2022/11/08 00:53:48;;;;;;;6.20;4.60;;;;;;;;;;108490;1266;22608;-33
2022/11/08 00:56:20;;;;;;;6.60;5.20;;;;;;;;;;108514;1258;23842;-33
2022/11/08 00:58:53;;;;;;;7.10;5.10;;;;;;;;;;108542;1266;22728;-34
2022/11/08 01:01:25;;;;;;;7.30;5.00;;;;;;;;;;108527;1258;22540;-34
2022/11/08 01:03:57;;;;;;;6.90;4.60;;;;;;;;;;108469;1262;22544;-34
2022/11/08 01:06:30;;;;;;;7.10;5.10;;;;;;;;;;108502;1263;25960;-33
2022/11/08 01:09:03;;;;;;;6.90;5.10;;;;;;;;;;108527;1267;22533;-33
2022/11/08 01:11:37;;;;;;;7.70;4.90;;;;;;;;;;108518;1268;22616;-34
2022/11/08 01:14:10;;;;;;;6.50;4.50;;;;;;;;;;108500;1268;22569;-33
2022/11/08 01:16:44;;;;;;;7.50;5.00;;;;;;;;;;108515;1265;22560;-34
2022/11/08 01:19:16;;;;;;;6.60;4.90;;;;;;;;;;108551;1266;22554;-33
2022/11/08 01:21:48;;;;;;;6.20;4.90;;;;;;;;;;108512;1268;22552;-33
2022/11/08 01:24:20;;;;;;;6.80;4.70;;;;;;;;;;108485;1266;22557;-33
2022/11/08 01:26:54;;;;;;;6.80;5.00;;;;;;;;;;108507;1266;22727;-33
2022/11/08 01:29:26;;;;;;;7.00;5.10;;;;;;;;;;108517;1258;22599;-33
2022/11/08 01:31:58;;;;;;;7.00;4.90;;;;;;;;;;108507;1266;22589;-33
2022/11/08 01:34:30;;;;;;;6.70;5.00;;;;;;;;;;108494;1268;22514;-33
2022/11/08 01:37:03;;;;;;;6.40;4.60;;;;;;;;;;108492;1262;22153;-33
2022/11/08 01:39:35;;;;;;;8.20;5.50;;;;;;;;;;108495;1266;22578;-34
2022/11/08 01:42:08;;;;;;;6.60;4.80;;;;;;;;;;108529;1266;22554;-33
2022/11/08 01:45:01;;;;;;;6.70;4.70;;;;;;;;;;108501;1265;22556;-33
2022/11/08 01:47:33;;;;;;;6.40;4.80;;;;;;;;;;108490;1266;22605;-33
2022/11/08 01:50:09;;;;;;;6.80;5.10;;;;;;;;;;108505;1265;22540;-33
2022/11/08 01:52:45;;;;;;;6.50;4.80;;;;;;;;;;108543;1259;22610;-33
2022/11/08 01:55:23;;;;;;;6.30;4.80;;;;;;;;;;108495;1266;22570;-33
2022/11/08 01:58:00;;;;;;;6.80;4.70;;;;;;;;;;108481;1265;22549;-33
2022/11/08 02:00:34;;;;;;;7.00;5.10;;;;;;;;;;108521;1267;25229;-33
2022/11/08 02:03:10;;;;;;;6.60;4.70;;;;;;;;;;108466;1266;22521;-33
2022/11/08 02:05:42;;;;;;;6.40;4.80;;;;;;;;;;108481;1266;25233;-34
2022/11/08 02:08:22;;;;;;;6.20;4.60;;;;;;;;;;108510;1261;22629;-33
2022/11/08 02:10:55;;;;;;;6.60;4.60;;;;;;;;;;108493;1265;25418;-34
2022/11/08 02:13:28;;;;;;;;;;;;;;;;;;108415;1265;22530;-33
2022/11/08 02:16:00;;;;;;;7.10;4.90;;;;;;;;;;108504;1268;22735;-33
2022/11/08 02:18:35;;;;;;;6.80;5.00;;;;;;;;;;108520;1267;25899;-33
2022/11/08 02:21:16;;;;;;;7.10;4.90;;;;;;;;;;108522;1265;23851;-34
2022/11/08 02:23:50;;;;;;;7.20;5.30;;;;;;;;;;108519;1267;23890;-33
2022/11/08 02:26:30;;;;;;;6.50;4.70;;;;;;;;;;108477;1258;22546;-33
2022/11/08 02:29:29;;;;;;;6.90;4.70;;;;;;;;;;108522;1262;23539;-33
2022/11/08 02:32:03;;;;;;;6.50;4.90;;;;;;;;;;108481;1266;22540;-33
2022/11/08 02:34:39;;;;;;;6.90;4.80;;;;;;;;;;108491;1259;22598;-33
2022/11/08 02:37:12;;;;;;;6.20;4.60;;;;;;;;;;108473;1258;22537;-34
2022/11/08 02:39:45;;;;;;;;;;;;;;;;;;108506;1262;22540;-34
2022/11/08 02:42:19;;;;;;;7.10;4.90;;;;;;;;;;108504;1266;22545;-33
2022/11/08 02:44:51;;;;;;;6.20;4.90;;;;;;;;;;108527;1267;22559;-33
2022/11/08 02:47:24;;;;;;;6.60;4.70;;;;;;;;;;108459;1266;26028;-34
2022/11/08 02:49:56;;;;;;;7.00;4.60;;;;;;;;;;108497;1266;22571;-33
2022/11/08 02:52:28;;;;;;;6.80;4.80;;;;;;;;;;108409;1261;22537;-33
2022/11/08 02:55:00;;;;;;;6.10;4.50;;;;;;;;;;108499;1267;22539;-33
2022/11/08 02:57:32;;;;;;;6.70;4.80;;;;;;;;;;108449;1265;22532;-33
2022/11/08 03:00:07;;;;;;;5.70;4.40;;;;;;;;;;108494;1268;24207;-33
2022/11/08 03:02:39;;;;;;;6.80;4.70;;;;;;;;;;108512;1267;22551;-33
2022/11/08 03:05:12;;;;;;;7.00;4.70;;;;;;;;;;108508;1265;22680;-33
2022/11/08 03:07:44;;;;;;;6.80;4.80;;;;;;;;;;108475;1268;22554;-33
2022/11/08 03:10:20;;;;;;;6.70;4.70;;;;;;;;;;108497;1266;22518;-34
2022/11/08 03:12:58;;;;;;;5.90;4.50;;;;;;;;;;108406;1268;22514;-34
2022/11/08 03:15:31;;;;;;;6.60;4.90;;;;;;;;;;108519;1259;22666;-34
2022/11/08 03:18:03;;;;;;;6.10;4.70;;;;;;;;;;108450;1267;22577;-33
2022/11/08 03:20:36;;;;;;;6.10;4.60;;;;;;;;;;108514;1259;22549;-33
2022/11/08 03:23:09;;;;;;;6.40;4.80;;;;;;;;;;108466;1267;22546;-33
2022/11/08 03:25:41;;;;;;;6.40;4.70;;;;;;;;;;108504;1266;22544;-33
2022/11/08 03:28:13;;;;;;;6.70;4.70;;;;;;;;;;108471;1267;22673;-33
2022/11/08 03:30:49;;;;;;;6.20;4.90;;;;;;;;;;108536;1266;22592;-33
2022/11/08 03:33:22;;;;;;;6.90;4.70;;;;;;;;;;108494;1266;24415;-33
2022/11/08 03:35:53;;;;;;;;;;;;;;;;;;108498;1266;22501;-33
2022/11/08 03:38:27;;;;;;;6.30;4.60;;;;;;;;;;108464;1266;22696;-33
2022/11/08 03:41:00;;;;;;;6.40;4.80;;;;;;;;;;108482;1268;22560;-33
2022/11/08 03:43:32;;;;;;;5.90;4.50;;;;;;;;;;108493;1266;24009;-34
2022/11/08 03:46:05;;;;;;;6.60;4.70;;;;;;;;;;108516;1262;22714;-33
2022/11/08 03:48:37;;;;;;;5.90;4.80;;;;;;;;;;108473;1267;24488;-33
2022/11/08 03:51:10;;;;;;;6.60;4.70;;;;;;;;;;108514;1258;23831;-34
2022/11/08 03:53:42;;;;;;;6.20;4.50;;;;;;;;;;108468;1265;22607;-34
2022/11/08 03:56:14;;;;;;;6.20;4.60;;;;;;;;;;108494;1266;22713;-33
2022/11/08 03:58:47;;;;;;;6.70;4.80;;;;;;;;;;108456;1262;22577;-33
2022/11/08 04:01:19;;;;;;;6.80;4.80;;;;;;;;;;108490;1262;22522;-33
2022/11/08 04:03:51;;;;;;;6.50;4.50;;;;;;;;;;108502;1266;22513;-33
2022/11/08 04:06:24;;;;;;;6.80;4.70;;;;;;;;;;108399;1266;22563;-33
2022/11/08 04:08:55;;;;;;;;;;;;;;;;;;108461;1267;23873;-34
2022/11/08 04:17:07;;;;;;;6.40;4.60;;;;;;;;;;108473;1265;22676;-33
2022/11/08 04:22:30;;;;;;;5.90;4.30;;;;;;;;;;108468;1266;22560;-33
2022/11/08 04:25:02;;;;;;;6.30;4.60;;;;;;;;;;108470;1267;22628;-33
2022/11/08 04:27:34;;;;;;;6.50;4.70;;;;;;;;;;108467;1265;22633;-33
2022/11/08 04:30:12;;;;;;;6.20;4.70;;;;;;;;;;108492;1267;22500;-33
2022/11/08 04:32:44;;;;;;;6.80;5.00;;;;;;;;;;108530;1265;22616;-33
2022/11/08 04:35:17;;;;;;;6.20;4.70;;;;;;;;;;108495;1268;22547;-33
2022/11/08 04:37:50;;;;;;;6.80;5.00;;;;;;;;;;108446;1266;22551;-34
2022/11/08 04:40:22;;;;;;;6.20;4.60;;;;;;;;;;108500;1265;22644;-33
2022/11/08 04:42:54;;;;;;;6.50;4.80;;;;;;;;;;108502;1268;25237;-33
2022/11/08 04:45:27;;;;;;;6.60;4.60;;;;;;;;;;108500;1266;22519;-33
2022/11/08 04:47:59;;;;;;;6.40;4.80;;;;;;;;;;108477;1267;25258;-33
2022/11/08 04:50:31;;;;;;;6.10;4.40;;;;;;;;;;108496;1267;22566;-33
2022/11/08 04:53:04;;;;;;;6.70;4.50;;;;;;;;;;108499;1268;22599;-34
2022/11/08 04:55:36;;;;;;;6.30;4.50;;;;;;;;;;108494;1266;22543;-33
2022/11/08 04:58:08;;;;;;;6.20;4.80;;;;;;;;;;108441;1266;22590;-33
2022/11/08 05:00:41;;;;;;;6.30;4.50;;;;;;;;;;108471;1268;24203;-33
2022/11/08 05:03:13;;;;;;;6.90;4.60;;;;;;;;;;108495;1266;22515;-33
2022/11/08 05:05:45;;;;;;;6.10;4.50;;;;;;;;;;108515;1266;24038;-33
2022/11/08 05:08:17;;;;;;;6.40;4.80;;;;;;;;;;108443;1268;22751;-33
2022/11/08 05:10:49;;;;;;;6.50;4.80;;;;;;;;;;108487;1266;22682;-33
2022/11/08 05:13:22;;;;;;;7.00;4.80;;;;;;;;;;108488;1266;22563;-33
2022/11/08 05:15:54;;;;;;;6.40;4.50;;;;;;;;;;108488;1266;22570;-33
2022/11/08 05:18:28;;;;;;;7.30;5.00;;;;;;;;;;108461;1259;22590;-34
2022/11/08 05:23:52;;;;;;;7.10;4.90;;;;;;;;;;108489;1259;22561;-33
2022/11/08 05:26:28;;;;;;;6.70;5.10;;;;;;;;;;108482;1268;22553;-33
2022/11/08 05:29:00;;;;;;;7.00;4.70;;;;;;;;;;108466;1266;22679;-33
2022/11/08 05:31:33;;;;;;;7.40;5.20;;;;;;;;;;108472;1268;22589;-33
2022/11/08 05:34:06;;;;;;;6.90;4.80;;;;;;;;;;108483;1259;22650;-33
2022/11/08 05:36:39;;;;;;;7.30;4.90;;;;;;;;;;108466;1258;22541;-33
2022/11/08 05:39:11;;;;;;;10.40;9.40;;;;;;;;;;108466;1266;22557;-33
2022/11/08 05:41:43;;;;;;;11.90;10.70;;;;;;;;;;108435;1265;22672;-33
2022/11/08 05:44:16;;;;;;;10.70;9.70;;;;;;;;;;108483;1266;22672;-33
2022/11/08 05:46:48;;;;;;;10.50;9.40;;;;;;;;;;108494;1261;23041;-34
2022/11/08 05:49:21;;;;;;;10.30;9.30;;;;;;;;;;108444;1267;22620;-33
2022/11/08 05:51:55;;;;;;;10.40;9.30;;;;;;;;;;108489;1267;22581;-33
2022/11/08 05:54:28;;;;;;;10.20;9.20;;;;;;;;;;108486;1268;25277;-33
2022/11/08 05:57:00;;;;;;;9.90;8.90;;;;;;;;;;108476;1265;22545;-33
2022/11/08 05:59:32;;;;;;;10.80;9.30;;;;;;;;;;108458;1266;22568;-33
2022/11/08 06:02:07;;;;;;;11.20;9.70;;;;;;;;;;108407;1266;22535;-34
2022/11/08 06:04:39;;;;;;;10.40;8.90;;;;;;;;;;108423;1266;22480;-34
2022/11/08 06:07:11;;;;;;;12.20;9.80;;;;;;;;;;108395;1266;22540;-34
2022/11/08 06:09:43;;;;;;;10.20;9.20;;;;;;;;;;108366;1267;22947;-33
2022/11/08 06:12:15;;;;;;;9.90;8.90;;;;;;;;;;108431;1267;22551;-33
2022/11/08 06:14:48;;;;;;;10.70;9.40;;;;;;;;;;108404;1266;22550;-34
2022/11/08 06:17:20;;;;;;;9.70;8.50;;;;;;;;;;108445;1265;22517;-33
2022/11/08 06:19:53;;;;;;;10.20;8.90;;;;;;;;;;108391;1267;22532;-33
2022/11/08 06:22:27;;;;;;;10.00;9.00;;;;;;;;;;108431;1268;22544;-33
2022/11/08 06:25:00;;;;;;;10.40;9.00;;;;;;;;;;108459;1267;22537;-33
2022/11/08 06:27:33;;;;;;;11.10;9.00;;;;;;;;;;108317;1268;22553;-33
2022/11/08 06:30:07;;;;;;;10.40;9.20;;;;;;;;;;108403;1267;25438;-33
2022/11/08 06:32:42;;;;;;;10.40;8.80;;;;;;;;;;108442;1267;22614;-33
2022/11/08 06:35:14;;;;;;;10.10;9.10;;;;;;;;;;108447;1267;22559;-33
2022/11/08 06:37:49;;;;;;;9.80;8.40;;;;;;;;;;108454;1267;25453;-34
2022/11/08 06:40:21;;;;;;;10.00;8.60;;;;;;;;;;108278;1268;22548;-33
2022/11/08 06:42:53;;;;;;;10.00;8.70;;;;;;;;;;108446;1267;25352;-33
2022/11/08 06:45:25;;;;;;;10.10;8.30;;;;;;;;;;108426;1267;22545;-33
2022/11/08 06:48:02;;;;;;;9.50;8.40;;;;;;;;;;108455;1267;25393;-33
2022/11/08 06:50:36;;;;;;;10.40;8.30;;;;;;;;;;108397;1267;22566;-33
2022/11/08 06:53:12;;;;;;;9.10;8.10;;;;;;;;;;108432;1268;23854;-33
2022/11/08 06:55:44;;;;;;;9.50;8.30;;;;;;;;;;108451;1267;23854;-33
2022/11/08 06:58:18;;;;;;;9.30;8.20;;;;;;;;;;108447;1267;22596;-33
2022/11/08 07:00:51;;;;;;;8.90;7.90;;;;;;;;;;108395;1267;25426;-33
2022/11/08 07:03:23;;;;;;;9.80;8.00;;;;;;;;;;108432;1271;22541;-33
2022/11/08 07:05:55;;;;;;;10.60;8.30;;;;;;;;;;108427;1264;22637;-33
2022/11/08 07:08:28;;;;;;;9.60;8.50;;;;;;;;;;108403;1268;25371;-33
2022/11/08 07:11:00;;;;;;;9.10;8.10;;;;;;;;;;108402;1267;22565;-33
2022/11/08 07:13:32;;;;;;;9.20;8.10;;;;;;;;;;108412;1261;25957;-33
2022/11/08 07:16:06;;;;;;;9.40;7.40;;;;;;;;;;108412;1267;22555;-33
2022/11/08 07:18:37;;;;;;;9.20;8.20;;;;;;;;;;108429;1271;22549;-33
2022/11/08 07:21:10;;;;;;;9.50;7.80;;;;;;;;;;108383;1261;22635;-33
2022/11/08 07:23:43;;;;;;;9.10;8.20;;;;;;;;;;108419;1267;22523;-34
2022/11/08 07:26:15;;;;;;;8.60;7.60;;;;;;;;;;108440;1267;22492;-33
2022/11/08 07:28:47;;;;;;;9.30;7.60;;;;;;;;;;108426;1267;22567;-33
2022/11/08 07:31:20;;;;;;;9.80;8.10;;;;;;;;;;108401;1267;22553;-33
2022/11/08 07:33:53;;;;;;;9.10;7.70;;;;;;;;;;108438;1267;25403;-33
2022/11/08 07:36:25;;;;;;;9.30;7.40;;;;;;;;;;108440;1263;22597;-34
2022/11/08 07:38:58;;;;;;;9.30;7.80;;;;;;;;;;108423;1267;22559;-33
2022/11/08 07:41:31;;;;;;;9.70;7.70;;;;;;;;;;108380;1267;23854;-33
2022/11/08 07:44:03;;;;;;;8.60;7.60;;;;;;;;;;108399;1264;25925;-33
2022/11/08 07:46:36;;;;;;;9.00;7.60;;;;;;;;;;108438;1267;22550;-33
2022/11/08 07:49:08;;;;;;;9.70;7.40;;;;;;;;;;108442;1264;22551;-33
2022/11/08 07:51:41;;;;;;;9.20;7.80;;;;;;;;;;108386;1261;24023;-33
2022/11/08 07:54:14;;;;;;;9.30;8.10;;;;;;;;;;108415;1267;22774;-33
2022/11/08 07:56:49;;;;;;;11.40;7.60;;;;;;;;;;108730;1254;22614;-31
2022/11/08 07:59:21;;;;;;;9.70;7.80;;;;;;;;;;108537;1258;22534;-31
2022/11/08 08:01:53;;;;;;;8.50;7.20;;;;;;;;;;108606;1264;22541;-31
2022/11/08 08:04:25;;;;;;;8.90;7.30;;;;;;;;;;108571;1265;159687;-31
2022/11/08 08:06:59;;;;;;;10.00;7.40;;;;;;;;;;108697;1264;22564;-30
2022/11/08 08:09:33;;;;;;;9.80;7.20;;;;;;;;;;108717;1263;22548;-30
2022/11/08 08:12:08;;;;;;;8.10;6.70;;;;;;;;;;108634;1260;22548;-30
2022/11/08 08:14:40;;;;;;;9.50;7.10;;;;;;;;;;108694;1265;22548;-30
2022/11/08 08:17:13;;;;;;;8.00;7.00;;;;;;;;;;108666;1260;22569;-30
2022/11/08 08:19:45;;;;;;;9.30;7.30;;;;;;;;;;108663;1263;22556;-30
2022/11/08 08:22:20;;;;;;;9.40;7.00;;;;;;;;;;108671;1260;22547;-30
2022/11/08 08:24:54;;;;;;;8.10;6.60;;;;;;;;;;108669;1263;22492;-31
2022/11/08 08:27:27;;;;;;;8.20;6.30;;;;;;;;;;108661;1262;22528;-31
2022/11/08 08:29:59;;;;;;;8.00;6.20;;;;;;;;;;108672;1265;22560;-31
2022/11/08 08:32:31;;;;;;;8.90;7.20;;;;;;;;;;108623;1265;22686;-31
2022/11/08 08:35:03;;;;;;;8.60;6.80;;;;;;;;;;108663;1263;22638;-31
2022/11/08 08:37:35;;;;;;;8.30;6.50;;;;;;;;;;108710;1255;25507;-31
2022/11/08 08:40:10;;;;;;;9.60;6.50;;;;;;;;;;108645;1265;22544;-31
2022/11/08 08:42:43;;;;;;;8.00;6.40;;;;;;;;;;108662;1263;22544;-31
2022/11/08 08:45:15;;;;;;;8.70;6.20;;;;;;;;;;108696;1263;23878;-31
2022/11/08 08:47:52;;;;;;;8.50;6.60;;;;;;;;;;108659;1265;22573;-31
2022/11/08 08:50:27;;;;;;;8.10;6.30;;;;;;;;;;108691;1265;24022;-31
2022/11/08 08:53:03;;;;;;;7.50;6.20;;;;;;;;;;108639;1262;22591;-30
2022/11/08 08:55:38;;;;;;;7.20;5.80;;;;;;;;;;108536;1262;22605;-32
2022/11/08 08:58:13;;;;;;;7.60;6.00;;;;;;;;;;108673;1264;22595;-31
2022/11/08 09:00:48;;;;;;;8.30;6.40;;;;;;;;;;108686;1265;22526;-31
2022/11/08 09:03:21;;;;;;;8.20;6.10;;;;;;;;;;108639;1265;22544;-30
2022/11/08 09:05:53;;;;;;;8.60;6.50;;;;;;;;;;108677;1265;22673;-31
2022/11/08 09:08:25;;;;;;;8.30;6.20;;;;;;;;;;108627;1265;22553;-30
2022/11/08 09:11:00;;;;;;;8.40;6.00;;;;;;;;;;108641;1265;22503;-30
2022/11/08 09:13:32;;;;;;;8.60;5.70;;;;;;;;;;108781;1265;22567;-30
2022/11/08 09:16:12;;;;;;;7.80;5.50;;;;;;;;;;108628;1263;22492;-32
2022/11/08 09:18:48;;;;;;;7.80;6.00;;;;;;;;;;108650;1256;22566;-32
2022/11/08 09:21:20;;;;;;;7.60;6.10;;;;;;;;;;108675;1264;22766;-31
2022/11/08 09:23:52;;;;;;;7.80;5.80;;;;;;;;;;108611;1256;22531;-31
2022/11/08 09:26:24;;;;;;;8.40;6.20;;;;;;;;;;108647;1265;23159;-31
2022/11/08 09:28:56;;;;;;;7.30;5.50;;;;;;;;;;108641;1265;22628;-31
2022/11/08 09:31:30;;;;;;;7.30;5.60;;;;;;;;;;108645;1265;22543;-31
2022/11/08 09:34:02;;;;;;;9.20;5.80;;;;;;;;;;108628;1260;22525;-31
2022/11/08 09:36:34;;;;;;;8.00;5.80;;;;;;;;;;108672;1263;22529;-31
2022/11/08 09:39:06;;;;;;;7.70;5.70;;;;;;;;;;108663;1261;22541;-31
2022/11/08 09:42:07;;;;;;;8.20;5.30;;;;;;;;;;108751;1265;23924;-30
2022/11/08 09:44:59;;;;;;;7.30;5.70;;;;;;;;;;108619;1265;22846;-30
2022/11/08 09:47:37;;;;;;;7.30;5.20;;;;;;;;;;108732;1256;25051;-29
2022/11/08 09:50:19;;;;;;;8.60;5.40;;;;;;;;;;108726;1271;22506;-30
2022/11/08 09:53:01;;;;;;;6.80;5.00;;;;;;;;;;108688;1264;22568;-29
2022/11/08 09:55:40;;;;;;;7.10;5.20;;;;;;;;;;108620;1258;22566;-29
2022/11/08 09:58:24;;;;;;;7.00;5.00;;;;;;;;;;108704;1264;24167;-30
2022/11/08 10:00:56;;;;;;;8.70;5.00;;;;;;;;;;108693;1259;22523;-30
2022/11/08 10:03:29;;;;;;;8.40;5.00;;;;;;;;;;108705;1263;23767;-30
2022/11/08 10:06:34;;;;;;;7.40;4.70;;;;;;;;;;108652;1265;22486;-30
2022/11/08 10:09:22;;;;;;;6.60;4.50;;;;;;;;;;108695;1255;23133;-29
2022/11/08 10:12:06;;;;;;;6.70;4.90;;;;;;;;;;108714;1263;22515;-32
2022/11/08 10:14:58;;;;;;;6.90;4.80;;;;;;;;;;108699;1265;22521;-32
2022/11/08 10:17:58;;;;;;;6.50;4.80;;;;;;;;;;108733;1265;22644;-32
2022/11/08 10:20:41;;;;;;;7.40;4.90;;;;;;;;;;108695;1263;22577;-32
2022/11/08 10:23:25;;;;;;;7.40;4.90;;;;;;;;;;108794;1259;24062;-31
2022/11/08 10:26:04;;;;;;;6.40;4.60;;;;;;;;;;108694;1265;24864;-31
2022/11/08 10:28:40;;;;;;;7.10;4.60;;;;;;;;;;108709;1258;25477;-31
2022/11/08 10:31:19;;;;;;;6.90;4.80;;;;;;;;;;108736;1258;22547;-30
2022/11/08 10:33:55;;;;;;;6.60;4.70;;;;;;;;;;108719;1263;25399;-31
2022/11/08 10:36:37;;;;;;;6.30;4.50;;;;;;;;;;108666;1263;22532;-31
2022/11/08 10:39:17;;;;;;;7.00;4.70;;;;;;;;;;108712;1258;22553;-31
2022/11/08 10:41:58;;;;;;;7.00;4.50;;;;;;;;;;108704;1264;25400;-32
2022/11/08 10:44:31;;;;;;;7.20;4.40;;;;;;;;;;108639;1263;22561;-32
2022/11/08 10:47:10;;;;;;;6.80;4.60;;;;;;;;;;108661;1263;22599;-31
2022/11/08 10:49:45;;;;;;;6.00;4.10;;;;;;;;;;108744;1264;22667;-31
2022/11/08 10:52:25;;;;;;;7.50;4.60;;;;;;;;;;108738;1256;25325;-31
2022/11/08 10:54:59;;;;;;;6.20;4.40;;;;;;;;;;108712;1265;22521;-30
2022/11/08 10:57:43;;;;;;;6.50;4.40;;;;;;;;;;108731;1265;24053;-31
2022/11/08 11:00:32;;;;;;;6.30;4.00;;;;;;;;;;108693;1263;22557;-32
2022/11/08 11:03:27;;;;;;;6.50;4.10;;;;;;;;;;108745;1263;22547;-31
2022/11/08 11:06:02;;;;;;;6.50;4.20;;;;;;;;;;108767;1258;22566;-31
2022/11/08 11:08:35;;;;;;;6.60;4.30;;;;;;;;;;108744;1265;22540;-31
2022/11/08 11:11:35;;;;;;;6.30;4.30;;;;;;;;;;108701;1263;25251;-31
2022/11/08 11:14:20;;;;;;;6.30;4.10;;;;;;;;;;108725;1264;22536;-31
2022/11/08 11:17:00;;;;;;;7.10;4.10;;;;;;;;;;108701;1263;24181;-32
2022/11/08 11:19:33;;;;;;;5.50;3.80;;;;;;;;;;108738;1263;22545;-32
2022/11/08 11:22:08;;;;;;;6.30;4.40;;;;;;;;;;108717;1265;22546;-31
2022/11/08 11:24:53;;;;;;;6.00;3.90;;;;;;;;;;108727;1263;23849;-32
2022/11/08 11:27:30;;;;;;;5.90;4.00;;;;;;;;;;108728;1265;23891;-31
2022/11/08 11:30:28;;;;;;;6.40;4.20;;;;;;;;;;108748;1265;22543;-32
2022/11/08 11:33:05;;;;;;;5.50;4.00;;;;;;;;;;108734;1263;22787;-33
2022/11/08 11:35:45;;;;;;;6.00;3.90;;;;;;;;;;108743;1264;22543;-32
2022/11/08 11:38:47;;;;;;;5.50;3.30;;;;;;;;;;108696;1265;22559;-32
2022/11/08 11:41:28;;;;;;;6.10;4.30;;;;;;;;;;108572;1263;22495;-31
2022/11/08 11:44:13;;;;;;;7.30;4.10;;;;;;;;;;109292;1265;22680;-31
2022/11/08 11:46:55;;;;;;;6.50;4.30;;;;;;;;;;108676;1265;22662;-32
2022/11/08 11:49:31;;;;;;;5.80;3.90;;;;;;;;;;108685;1263;23355;-31
2022/11/08 11:52:07;;;;;;;5.70;4.00;;;;;;;;;;108626;1263;22586;-32
2022/11/08 11:54:40;;;;;;;5.50;3.90;;;;;;;;;;108671;1264;22605;-32
2022/11/08 11:57:29;;;;;;;5.70;4.00;;;;;;;;;;108694;1256;22811;-32
2022/11/08 12:00:11;;;;;;;6.90;4.20;;;;;;;;;;108765;1265;23861;-32
2022/11/08 12:03:25;;;;;;;6.60;3.80;;;;;;;;;;108743;1265;22553;-31
2022/11/08 12:06:36;;;;;;;6.20;4.00;;;;;;;;;;108693;1265;22707;-31
2022/11/08 12:09:24;;;;;;;5.20;3.60;;;;;;;;;;108645;1260;22612;-30
2022/11/08 12:12:12;;;;;;;6.00;3.70;;;;;;;;;;108703;1263;22561;-31
2022/11/08 12:15:02;;;;;;;6.70;3.70;;;;;;;;;;108721;1265;22564;-31
2022/11/08 12:18:01;;;;;;;5.60;3.60;;;;;;;;;;108655;1265;22558;-31
2022/11/08 12:20:45;;;;;;;5.70;3.40;;;;;;;;;;108689;1265;22554;-31
2022/11/08 12:23:36;;;;;;;5.80;3.70;;;;;;;;;;108673;1264;22593;-31
2022/11/08 12:26:21;;;;;;;6.00;3.80;;;;;;;;;;108696;1265;22543;-31
2022/11/08 12:29:18;;;;;;;6.10;3.80;;;;;;;;;;108669;1263;22540;-31
2022/11/08 12:32:08;;;;;;;6.10;3.60;;;;;;;;;;108711;1265;22555;-31
2022/11/08 12:34:54;;;;;;;7.00;3.80;;;;;;;;;;108698;1265;23835;-31
2022/11/08 12:37:46;;;;;;;5.80;3.70;;;;;;;;;;108716;1264;23890;-31
2022/11/08 12:40:27;;;;;;;5.90;3.50;;;;;;;;;;108750;1262;22715;-31
2022/11/08 12:43:18;;;;;;;5.50;3.30;;;;;;;;;;108710;1265;22578;-31
2022/11/08 12:46:06;;;;;;;5.70;3.40;;;;;;;;;;108510;1266;22543;-31
2022/11/08 12:49:10;;;;;;;6.50;3.20;;;;;;;;;;108723;1256;22565;-31
2022/11/08 12:52:01;;;;;;;5.10;3.50;;;;;;;;;;108700;1265;22546;-31
2022/11/08 12:54:38;;;;;;;5.40;3.40;;;;;;;;;;108720;1263;22556;-31
2022/11/08 12:57:19;;;;;;;6.10;3.80;;;;;;;;;;108689;1265;22576;-31
2022/11/08 12:59:58;;;;;;;5.00;3.40;;;;;;;;;;108556;1265;22545;-30
2022/11/08 13:02:34;;;;;;;5.50;3.40;;;;;;;;;;108626;1265;22544;-31
2022/11/08 13:05:13;;;;;;;5.20;3.20;;;;;;;;;;108616;1265;22560;-31
2022/11/08 13:07:52;;;;;;;5.90;3.30;;;;;;;;;;108608;1264;22660;-31
2022/11/08 13:10:35;;;;;;;5.40;3.30;;;;;;;;;;108551;1261;25255;-30
2022/11/08 13:13:23;;;;;;;6.50;3.20;;;;;;;;;;108572;1265;22604;-32
2022/11/08 13:16:15;;;;;;;5.30;3.20;;;;;;;;;;108581;1265;22548;-31
2022/11/08 13:18:51;;;;;;;6.60;3.20;;;;;;;;;;108560;1259;22588;-33
2022/11/08 13:21:39;;;;;;;5.40;3.20;;;;;;;;;;108665;1258;22547;-31
2022/11/08 13:24:36;;;;;;;5.40;3.10;;;;;;;;;;108652;1264;22550;-31
2022/11/08 13:27:34;;;;;;;6.00;3.50;;;;;;;;;;108605;1258;22675;-31
2022/11/08 13:30:35;;;;;;;5.20;3.20;;;;;;;;;;108597;1264;22605;-31
2022/11/08 13:33:20;;;;;;;5.90;3.20;;;;;;;;;;108608;1265;22552;-31
2022/11/08 13:36:04;;;;;;;5.40;3.60;;;;;;;;;;108583;1264;22547;-31
2022/11/08 13:38:51;;;;;;;6.50;3.80;;;;;;;;;;108609;1265;22557;-33
2022/11/08 13:41:25;;;;;;;7.90;4.00;;;;;;;;;;108573;1263;22863;-32
2022/11/08 13:44:00;;;;;;;7.40;4.30;;;;;;;;;;108570;1265;22542;-32
2022/11/08 13:46:50;;;;;;;9.30;4.20;;;;;;;;;;108584;1265;22706;-31
2022/11/08 13:49:23;;;;;;;10.00;4.30;;;;;;;;;;108653;1264;22532;-32
2022/11/08 13:52:47;;;;;;;8.10;4.80;;;;;;;;;;108576;1262;24196;-32
2022/11/08 13:55:48;;;;;;;7.90;4.70;;;;;;;;;;108577;1265;22524;-31
2022/11/08 13:58:36;;;;;;;8.30;5.10;;;;;;;;;;108661;1265;22586;-31
2022/11/08 14:01:30;;;;;;;9.80;5.30;;;;;;;;;;108677;1261;23906;-31
2022/11/08 14:04:02;;;;;;;10.30;5.00;;;;;;;;;;108666;1265;25230;-31
2022/11/08 14:06:47;;;;;;;8.20;4.90;;;;;;;;;;108690;1265;24004;-31
2022/11/08 14:09:29;;;;;;;9.40;5.00;;;;;;;;;;108659;1265;22544;-31
2022/11/08 14:12:06;;;;;;;9.20;4.70;;;;;;;;;;108645;1265;22557;-30
2022/11/08 14:14:55;;;;;;;8.50;4.30;;;;;;;;;;108659;1260;26093;-32
2022/11/08 14:17:38;;;;;;;7.70;4.30;;;;;;;;;;108602;1263;22500;-31
2022/11/08 14:20:27;;;;;;;;;;;;;;;;;;108665;1265;22464;-31
2022/11/08 14:23:14;;;;;;;9.00;4.20;;;;;;;;;;108591;1262;22661;-31
2022/11/08 14:25:52;;;;;;;8.10;4.50;;;;;;;;;;108724;1265;22544;-30
2022/11/08 14:28:29;;;;;;;7.40;4.10;;;;;;;;;;108568;1264;22567;-31
2022/11/08 14:31:04;;;;;;;7.90;4.30;;;;;;;;;;108601;1265;22534;-28
2022/11/08 14:33:42;;;;;;;8.80;5.00;;;;;;;;;;108698;1260;22557;-28
2022/11/08 14:36:20;;;;;;;9.90;4.70;;;;;;;;;;108606;1265;22506;-29
2022/11/08 14:39:02;;;;;;;8.90;4.50;;;;;;;;;;108649;1265;22570;-29
2022/11/08 14:41:35;;;;;;;7.20;4.20;;;;;;;;;;108718;1264;22544;-29
2022/11/08 14:44:15;;;;;;;7.70;4.40;;;;;;;;;;108697;1263;23135;-29
2022/11/08 14:46:47;;;;;;;7.60;4.20;;;;;;;;;;108673;1264;23858;-29
2022/11/08 14:49:34;;;;;;;8.10;4.30;;;;;;;;;;108608;1258;22504;-29
2022/11/08 14:52:17;;;;;;;8.80;4.90;;;;;;;;;;108610;1255;22536;-29
2022/11/08 14:54:58;;;;;;;7.90;4.10;;;;;;;;;;108611;1265;22564;-29
2022/11/08 14:57:45;;;;;;;7.90;4.20;;;;;;;;;;108630;1263;22558;-29
2022/11/08 15:00:25;;;;;;;7.60;4.10;;;;;;;;;;108641;1265;22577;-29
2022/11/08 15:03:02;;;;;;;7.30;4.20;;;;;;;;;;108638;1265;22549;-29
2022/11/08 15:05:42;;;;;;;7.20;4.10;;;;;;;;;;108657;1265;23852;-29
2022/11/08 15:08:25;;;;;;;7.50;4.10;;;;;;;;;;108748;1263;22539;-29
2022/11/08 15:11:02;;;;;;;6.90;4.10;;;;;;;;;;108654;1265;22481;-29
2022/11/08 15:13:42;;;;;;;7.60;4.50;;;;;;;;;;108752;1265;22494;-29
2022/11/08 15:16:14;;;;;;;8.00;4.20;;;;;;;;;;108684;1265;22590;-29
2022/11/08 15:18:47;;;;;;;8.30;4.30;;;;;;;;;;108757;1265;24016;-29
2022/11/08 15:21:30;;;;;;;8.90;5.50;;;;;;;;;;108636;1263;22544;-29
2022/11/08 15:24:16;;;;;;;9.30;5.80;;;;;;;;;;108724;1261;22682;-29
2022/11/08 15:27:07;;;;;;;7.90;5.70;;;;;;;;;;108715;1265;25290;-29
2022/11/08 15:29:58;;;;;;;9.10;5.90;;;;;;;;;;108720;1264;22587;-29
2022/11/08 15:32:37;;;;;;;10.40;6.00;;;;;;;;;;108662;1263;22569;-29
2022/11/08 15:35:26;;;;;;;9.80;6.30;;;;;;;;;;108591;1265;25398;-29
2022/11/08 15:38:05;;;;;;;9.70;6.40;;;;;;;;;;108691;1268;25238;-29
2022/11/08 15:40:48;;;;;;;12.10;7.00;;;;;;;;;;108764;1266;22486;-29
2022/11/08 15:43:40;;;;;;;10.00;6.10;;;;;;;;;;108595;1265;22551;-29
2022/11/08 15:46:28;;;;;;;9.00;5.80;;;;;;;;;;108715;1265;22583;-29
2022/11/08 15:49:13;;;;;;;10.60;6.30;;;;;;;;;;108615;1265;25917;-29
2022/11/08 15:51:45;;;;;;;9.80;6.20;;;;;;;;;;108741;1262;25418;-28